createdAt,value
2018-04-14T00:00:26.229Z,8.81
2018-04-14T00:06:16.871Z,8.39
2018-04-14T00:12:07.519Z,7.59
2018-04-14T00:17:58.168Z,7.9
2018-04-14T00:23:48.874Z,8.75
2018-04-14T00:29:39.477Z,8.99
2018-04-14T00:35:30.167Z,9
2018-04-14T00:41:20.812Z,8.77
2018-04-14T00:47:11.499Z,8.8
2018-04-14T00:53:02.143Z,8.82
2018-04-14T00:58:52.819Z,9.38
2018-04-14T01:04:43.453Z,8.82
2018-04-14T01:10:34.104Z,7.78
2018-04-14T01:16:24.774Z,8.62
2018-04-14T01:22:15.382Z,8.48
2018-04-14T01:28:06.062Z,9.05
2018-04-14T01:33:56.725Z,9.93
2018-04-14T01:39:47.362Z,9.62
2018-04-14T01:45:38.076Z,8.15
2018-04-14T01:51:28.721Z,7.55
2018-04-14T01:57:19.348Z,7.65
2018-04-14T02:03:10.010Z,7.32
2018-04-14T02:09:00.698Z,7.98
2018-04-14T02:14:51.362Z,8.11
2018-04-14T02:20:41.970Z,8.24
2018-04-14T02:26:32.630Z,7.97
2018-04-14T02:32:23.254Z,7.72
2018-04-14T02:38:13.889Z,7.28
2018-04-14T02:44:04.519Z,8.09
2018-04-14T02:49:55.187Z,9.32
2018-04-14T02:55:45.861Z,8.46
2018-04-14T03:01:36.466Z,8.52
2018-04-14T03:07:27.117Z,7.92
2018-04-14T03:13:17.715Z,8.1
2018-04-14T03:19:08.436Z,8.41
2018-04-14T03:24:59.041Z,8.64
2018-04-14T03:30:49.659Z,8.14
2018-04-14T03:36:40.276Z,8.72
2018-04-14T03:42:30.921Z,8.63
2018-04-14T03:48:21.544Z,9.18
2018-04-14T03:54:12.245Z,9.63
2018-04-14T04:00:02.882Z,9.35
2018-04-14T04:05:53.514Z,9.62
2018-04-14T04:11:44.189Z,9.64
2018-04-14T04:17:34.801Z,9.54
2018-04-14T04:23:25.449Z,9.47
2018-04-14T04:29:16.051Z,10.04
2018-04-14T04:35:06.742Z,10.91
2018-04-14T04:40:57.345Z,16.09
2018-04-14T04:46:48.077Z,18.18
2018-04-14T04:52:38.602Z,19.65
2018-04-14T04:58:29.342Z,20.4
2018-04-14T05:04:19.899Z,19.09
2018-04-14T05:10:10.554Z,12.99
2018-04-14T05:16:01.232Z,11.1
2018-04-14T05:21:51.852Z,11.93
2018-04-14T05:27:42.438Z,14.56
2018-04-14T05:33:33.096Z,18.98
2018-04-14T05:39:23.751Z,14.98
2018-04-14T05:45:14.383Z,13.1
2018-04-14T05:51:05.061Z,11.54
2018-04-14T05:56:55.720Z,11.59
2018-04-14T06:02:46.445Z,10.67
2018-04-14T06:08:37.045Z,10.61
2018-04-14T06:14:27.727Z,10.18
2018-04-14T06:20:18.322Z,10.8
2018-04-14T06:26:08.949Z,10.94
2018-04-14T06:31:59.544Z,10.36
2018-04-14T06:37:50.159Z,12.05
2018-04-14T06:43:40.788Z,4.13
2018-04-14T06:49:31.403Z,3.89
2018-04-14T06:55:22.045Z,4.11
2018-04-14T07:01:12.673Z,3.97
2018-04-14T07:07:03.328Z,4.14
2018-04-14T07:12:54.001Z,4.37
2018-04-14T07:18:44.597Z,5.4
2018-04-14T07:24:35.242Z,4.78
2018-04-14T07:30:25.924Z,5.12
2018-04-14T07:36:16.508Z,4.71
2018-04-14T07:42:07.168Z,4.24
2018-04-14T07:47:57.758Z,5.22
2018-04-14T07:53:48.410Z,4.9
2018-04-14T07:59:39.056Z,4.58
2018-04-14T08:05:29.694Z,4.39
2018-04-14T08:11:20.369Z,4.56
2018-04-14T08:17:10.981Z,4.25
2018-04-14T08:23:01.617Z,5.32
2018-04-14T08:28:52.270Z,3.96
2018-04-14T08:34:42.858Z,4.22
2018-04-14T08:40:33.544Z,4.6
2018-04-14T08:46:24.178Z,4.31
2018-04-14T08:52:14.798Z,4.93
2018-04-14T08:58:05.429Z,4.54
2018-04-14T09:03:56.128Z,4.22
2018-04-14T09:09:46.709Z,4.53
2018-04-14T09:15:37.362Z,3.67
2018-04-14T09:21:28.031Z,4.41
2018-04-14T09:27:18.645Z,4.04
2018-04-14T09:33:09.344Z,3.56
2018-04-14T09:38:59.962Z,4.35
2018-04-14T09:44:54.826Z,3.59
2018-04-14T09:50:41.248Z,4.22
2018-04-14T09:56:31.892Z,4.13
2018-04-14T10:02:22.561Z,3.84
2018-04-14T10:08:13.227Z,4.12
2018-04-14T10:14:03.881Z,3.82
2018-04-14T10:19:54.530Z,3.96
2018-04-14T10:25:45.126Z,2.74
2018-04-14T10:31:35.792Z,4.01
2018-04-14T10:37:26.530Z,3.58
2018-04-14T10:43:17.122Z,4.07
2018-04-14T10:49:07.752Z,4.42
2018-04-14T10:54:58.397Z,4.1
2018-04-14T11:00:49.075Z,5.37
2018-04-14T11:06:39.715Z,4.13
2018-04-14T11:12:30.343Z,3.94
2018-04-14T11:18:20.942Z,4.32
2018-04-14T11:24:11.636Z,4.16
2018-04-14T11:30:02.296Z,4.1
2018-04-14T11:35:52.904Z,4.04
2018-04-14T11:41:43.529Z,3.72
2018-04-14T11:47:34.123Z,4.43
2018-04-14T11:53:24.809Z,8.48
2018-04-14T11:59:15.419Z,9.61
2018-04-14T12:05:06.029Z,5.4
2018-04-14T12:10:56.704Z,3.94
2018-04-14T12:16:47.375Z,4.49
2018-04-14T12:22:38.042Z,5
2018-04-14T12:28:28.591Z,4.15
2018-04-14T12:34:19.232Z,3.87
2018-04-14T12:40:09.873Z,4.69
2018-04-14T12:46:00.491Z,4.4
2018-04-14T12:51:51.145Z,4.82
2018-04-14T12:57:41.757Z,4.32
2018-04-14T13:03:32.364Z,5.34
2018-04-14T13:09:23.111Z,4.4
2018-04-14T13:15:13.657Z,5.26
2018-04-14T13:21:04.301Z,4.54
2018-04-14T13:26:54.942Z,4.92
2018-04-14T13:32:45.574Z,5.21
2018-04-14T13:38:36.187Z,4.94
2018-04-14T13:44:26.820Z,5.63
2018-04-14T13:50:17.488Z,5.59
2018-04-14T13:56:08.149Z,9.85
2018-04-14T14:01:58.839Z,5.53
2018-04-14T14:07:49.411Z,6.71
2018-04-14T14:13:40.074Z,7.18
2018-04-14T14:19:30.697Z,6.24
2018-04-14T14:25:21.389Z,6.52
2018-04-14T14:31:12.056Z,6.44
2018-04-14T14:37:02.692Z,6.29
2018-04-14T14:42:53.409Z,6.45
2018-04-14T14:48:43.984Z,5.85
2018-04-14T14:54:34.612Z,6.59
2018-04-14T15:00:25.268Z,6.68
2018-04-14T15:06:16.002Z,6.45
2018-04-14T15:12:06.574Z,6.37
2018-04-14T15:17:57.236Z,6.32
2018-04-14T15:23:47.934Z,6.37
2018-04-14T15:29:38.537Z,6.28
2018-04-14T15:35:29.174Z,6.61
2018-04-14T15:41:19.893Z,6
2018-04-14T15:47:10.475Z,6.32
2018-04-14T15:53:01.105Z,6.1
2018-04-14T15:58:51.758Z,6.27
2018-04-14T16:04:42.437Z,5.84
2018-04-14T16:10:33.067Z,5.6
2018-04-14T16:16:23.689Z,5.04
2018-04-14T16:22:14.307Z,5.12
2018-04-14T16:28:04.965Z,5.07
2018-04-14T16:33:55.614Z,5.33
2018-04-14T16:39:46.262Z,5.39
2018-04-14T16:45:36.910Z,4.96
2018-04-14T16:51:27.515Z,4.21
2018-04-14T16:57:18.195Z,4.11
2018-04-14T17:03:08.786Z,4.31
2018-04-14T17:08:59.468Z,4.03
2018-04-14T17:14:50.089Z,3.57
2018-04-14T17:20:40.709Z,3.46
2018-04-14T17:26:31.402Z,3.41
2018-04-14T17:32:21.990Z,3.22
2018-04-14T17:38:12.683Z,3.25
2018-04-14T17:44:03.293Z,2.57
2018-04-14T17:49:53.874Z,2.95
2018-04-14T17:55:44.534Z,2.89
2018-04-14T18:01:35.171Z,3.19
2018-04-14T18:07:25.898Z,3.14
2018-04-14T18:13:16.469Z,4.33
2018-04-14T18:19:07.083Z,2.87
2018-04-14T18:24:57.726Z,3.23
2018-04-14T18:30:48.384Z,2.68
2018-04-14T18:36:38.989Z,3.56
2018-04-14T18:42:29.671Z,2.96
2018-04-14T18:48:20.298Z,3.24
2018-04-14T18:54:10.924Z,2.75
2018-04-14T19:00:01.573Z,2.62
2018-04-14T19:05:52.210Z,2.7
2018-04-14T19:11:42.828Z,2.96
2018-04-14T19:17:33.440Z,2.31
2018-04-14T19:23:24.125Z,2.76
2018-04-14T19:29:14.740Z,3
2018-04-14T19:35:05.373Z,3.6
2018-04-14T19:40:55.977Z,2.74
2018-04-14T19:46:46.592Z,2.68
2018-04-14T19:52:37.234Z,2.57
2018-04-14T19:58:27.840Z,2.68
2018-04-14T20:04:18.472Z,2.44
2018-04-14T20:10:09.102Z,3.03
2018-04-14T20:15:59.717Z,3.2
2018-04-14T20:21:50.395Z,2.39
2018-04-14T20:27:40.961Z,2.24
2018-04-14T20:33:31.594Z,2.8
2018-04-14T20:39:22.211Z,2.64
2018-04-14T20:45:12.845Z,3.2
2018-04-14T20:51:03.480Z,2.59
2018-04-14T20:56:54.089Z,7.35
2018-04-14T21:02:44.757Z,2.26
2018-04-14T21:08:35.411Z,2.41
2018-04-14T21:14:26.005Z,2.69
2018-04-14T21:20:16.606Z,2.88
2018-04-14T21:26:07.250Z,2.76
2018-04-14T21:31:57.850Z,2.92
2018-04-14T21:37:48.467Z,3.35
2018-04-14T21:43:39.101Z,3.43
2018-04-14T21:49:29.731Z,3.68
2018-04-14T21:55:20.420Z,2.95
2018-04-14T22:01:10.984Z,3.19
2018-04-14T22:07:01.586Z,3.15
2018-04-14T22:12:52.207Z,3.12
2018-04-14T22:18:42.866Z,2.84
2018-04-14T22:24:33.452Z,2.9
2018-04-14T22:30:24.074Z,2.72
2018-04-14T22:36:14.864Z,3.53
2018-04-14T22:42:05.378Z,2.98
2018-04-14T22:47:55.986Z,3.27
2018-04-14T22:53:46.593Z,3.35
2018-04-14T22:59:37.238Z,2.68
2018-04-14T23:05:27.855Z,3.32
2018-04-14T23:11:18.543Z,4
2018-04-14T23:17:09.053Z,3.89
2018-04-14T23:22:59.703Z,4.04
2018-04-14T23:28:50.289Z,4.05
2018-04-14T23:34:40.913Z,5.02
2018-04-14T23:40:31.561Z,5.31
2018-04-14T23:46:22.130Z,5.04
2018-04-14T23:52:12.726Z,6.21
2018-04-14T23:58:03.402Z,5.81
